Time;durP1;ratioP1;P1;durP2;ratioP2;P2;SDS_P1;SDS_P2;PMS_P1;PMS_P2;Temp;Humidity;BMP_temperature;BMP_pressure;BME280_temperature;BME280_humidity;BME280_pressure;Samples;Min_cycle;Max_cycle;Signal;HPM_P1;HPM_P2
2022/04/12 00:01:40;;;;;;;;;2.00;1.67;;;;;;;;5045180;28;45303;-72
2022/04/12 00:04:06;;;;;;;;;8.33;8.33;;;;;;;;5045003;28;46450;-72
2022/04/12 00:06:31;;;;;;;;;2.67;2.00;;;;;;;;5046123;28;45431;-72
2022/04/12 00:08:57;;;;;;;;;0.67;0.67;;;;;;;;5046514;28;45440;-71
2022/04/12 00:11:22;;;;;;;;;0.67;0.00;;;;;;;;5055114;28;45487;-71
2022/04/12 00:13:48;;;;;;;;;1.00;0.67;;;;;;;;5058230;28;45519;-70
2022/04/12 00:16:13;;;;;;;;;1.00;1.00;;;;;;;;5058603;28;45595;-71
2022/04/12 00:21:23;;;;;;;;;1.33;1.00;;;;;;;;5058575;28;45457;-72
2022/04/12 00:23:48;;;;;;;;;1.00;1.00;;;;;;;;5058126;28;45218;-71
2022/04/12 00:26:14;;;;;;;;;2.33;1.00;;;;;;;;5057113;28;45332;-71
2022/04/12 00:28:40;;;;;;;;;2.00;1.00;;;;;;;;5058407;28;45464;-71
2022/04/12 00:31:06;;;;;;;;;1.33;1.00;;;;;;;;5058330;28;45479;-71
2022/04/12 00:33:31;;;;;;;;;1.00;1.00;;;;;;;;5057939;28;45298;-71
2022/04/12 00:36:00;;;;;;;;;1.33;1.00;;;;;;;;5058247;28;45232;-71
2022/04/12 00:38:27;;;;;;;;;2.00;1.00;;;;;;;;5056821;28;45378;-71
2022/04/12 00:40:53;;;;;;;;;1.00;1.00;;;;;;;;5058254;28;45326;-71
2022/04/12 00:43:19;;;;;;;;;1.33;1.00;;;;;;;;5056369;28;46767;-71
2022/04/12 00:45:45;;;;;;;;;2.00;1.00;;;;;;;;5057925;28;45445;-71
2022/04/12 00:48:11;;;;;;;;;1.00;1.00;;;;;;;;5058030;28;45364;-71
2022/04/12 00:50:37;;;;;;;;;1.00;1.00;;;;;;;;5057005;28;45479;-71
2022/04/12 00:53:02;;;;;;;;;0.33;0.33;;;;;;;;5057658;28;46645;-71
2022/04/12 00:55:29;;;;;;;;;1.00;1.00;;;;;;;;5057796;28;45375;-71
2022/04/12 00:57:54;;;;;;;;;0.67;0.67;;;;;;;;5057906;28;45489;-70
2022/04/12 01:00:20;;;;;;;;;2.00;1.00;;;;;;;;5057968;28;45372;-71
2022/04/12 01:02:46;;;;;;;;;1.00;0.33;;;;;;;;5057842;28;46247;-71
2022/04/12 01:05:11;;;;;;;;;2.00;1.00;;;;;;;;5057203;28;45425;-70
2022/04/12 01:07:37;;;;;;;;;4.00;1.00;;;;;;;;5057382;28;45499;-71
2022/04/12 01:10:03;;;;;;;;;1.00;1.00;;;;;;;;5056538;28;45515;-71
2022/04/12 01:12:30;;;;;;;;;2.33;1.00;;;;;;;;5057635;28;45534;-71
2022/04/12 01:15:09;;;;;;;;;1.00;0.67;;;;;;;;5057460;28;45168;-71
2022/04/12 01:17:34;;;;;;;;;1.00;1.00;;;;;;;;5057502;28;45319;-71
2022/04/12 01:20:00;;;;;;;;;1.00;1.00;;;;;;;;5057604;28;45285;-71
2022/04/12 01:22:26;;;;;;;;;1.00;1.00;;;;;;;;5057250;28;46337;-71
2022/04/12 01:24:51;;;;;;;;;1.00;1.00;;;;;;;;5057355;28;45451;-71
2022/04/12 01:27:16;;;;;;;;;1.67;1.33;;;;;;;;5056361;28;45884;-71
2022/04/12 01:29:42;;;;;;;;;1.00;1.00;;;;;;;;5057474;28;45239;-72
2022/04/12 01:32:08;;;;;;;;;0.67;0.67;;;;;;;;5057162;28;45404;-71
2022/04/12 01:34:36;;;;;;;;;2.00;1.00;;;;;;;;5055777;28;45376;-71
2022/04/12 01:37:03;;;;;;;;;2.00;1.00;;;;;;;;5057189;28;45390;-71
2022/04/12 01:39:29;;;;;;;;;0.67;0.67;;;;;;;;5057282;28;45417;-71
2022/04/12 01:41:54;;;;;;;;;1.33;1.00;;;;;;;;5056948;28;45401;-71
2022/04/12 01:44:19;;;;;;;;;0.67;0.67;;;;;;;;5057356;28;45311;-70
2022/04/12 01:46:45;;;;;;;;;1.00;1.00;;;;;;;;5057279;28;45417;-70
2022/04/12 01:49:10;;;;;;;;;2.00;2.00;;;;;;;;5057391;28;45414;-71
2022/04/12 01:51:35;;;;;;;;;2.00;1.00;;;;;;;;5055550;28;46482;-71
2022/04/12 01:54:01;;;;;;;;;2.00;2.00;;;;;;;;5055642;28;45737;-71
2022/04/12 01:56:26;;;;;;;;;1.00;1.00;;;;;;;;5057180;28;45498;-71
2022/04/12 01:58:51;;;;;;;;;2.33;1.00;;;;;;;;5057205;28;45962;-71
2022/04/12 02:01:17;;;;;;;;;3.00;2.00;;;;;;;;5056570;28;45439;-71
2022/04/12 02:03:42;;;;;;;;;2.00;1.00;;;;;;;;5060423;28;45297;-70
2022/04/12 02:06:07;;;;;;;;;3.00;1.00;;;;;;;;5060744;28;45338;-71
2022/04/12 02:08:34;;;;;;;;;2.00;1.00;;;;;;;;5060702;28;45514;-71
2022/04/12 02:10:59;;;;;;;;;2.00;1.00;;;;;;;;5060248;28;45734;-71
2022/04/12 02:13:25;;;;;;;;;2.00;1.00;;;;;;;;5059939;28;45451;-71
2022/04/12 02:15:50;;;;;;;;;1.00;1.00;;;;;;;;5060717;28;45376;-71
2022/04/12 02:18:15;;;;;;;;;2.00;1.67;;;;;;;;5060409;28;45442;-71
2022/04/12 02:20:44;;;;;;;;;0.00;0.00;;;;;;;;5060201;28;45478;-72
2022/04/12 02:23:09;;;;;;;;;2.00;2.00;;;;;;;;5058888;28;45499;-71
2022/04/12 02:25:34;;;;;;;;;3.00;1.00;;;;;;;;5059986;28;45544;-71
2022/04/12 02:28:00;;;;;;;;;1.67;1.67;;;;;;;;5060256;28;45369;-72
2022/04/12 02:30:25;;;;;;;;;1.67;0.67;;;;;;;;5059757;28;45460;-71
2022/04/12 02:32:50;;;;;;;;;1.00;1.00;;;;;;;;5060209;28;45461;-71
2022/04/12 02:35:16;;;;;;;;;3.67;2.00;;;;;;;;5060033;28;45483;-72
2022/04/12 02:37:41;;;;;;;;;3.00;1.00;;;;;;;;5060259;28;45307;-72
2022/04/12 02:40:08;;;;;;;;;1.33;1.00;;;;;;;;5059921;28;46319;-72
2022/04/12 02:42:33;;;;;;;;;1.67;1.67;;;;;;;;5059890;28;45798;-71
2022/04/12 02:44:59;;;;;;;;;2.67;2.00;;;;;;;;5058841;28;45981;-72
2022/04/12 02:47:25;;;;;;;;;1.33;0.00;;;;;;;;5058741;28;45714;-72
2022/04/12 02:49:50;;;;;;;;;1.00;1.00;;;;;;;;5059997;28;45638;-71
2022/04/12 02:52:16;;;;;;;;;0.00;0.00;;;;;;;;5058337;28;45588;-71
2022/04/12 02:54:41;;;;;;;;;1.00;1.00;;;;;;;;5060013;28;45416;-72
2022/04/12 02:57:07;;;;;;;;;3.33;2.00;;;;;;;;5059828;28;45442;-71
2022/04/12 02:59:32;;;;;;;;;1.33;1.00;;;;;;;;5059447;28;46210;-71
2022/04/12 03:01:57;;;;;;;;;2.00;2.00;;;;;;;;5058144;28;45459;-72
2022/04/12 03:04:23;;;;;;;;;1.67;1.00;;;;;;;;5060035;28;45401;-72
2022/04/12 03:06:48;;;;;;;;;2.00;2.00;;;;;;;;5059812;28;45436;-72
2022/04/12 03:09:13;;;;;;;;;1.00;0.33;;;;;;;;5058100;28;47042;-72
2022/04/12 03:11:39;;;;;;;;;1.67;1.33;;;;;;;;5057927;28;45590;-72
2022/04/12 03:14:05;;;;;;;;;2.00;1.00;;;;;;;;5058589;28;45496;-72
2022/04/12 03:16:30;;;;;;;;;3.00;2.00;;;;;;;;5059647;28;45317;-72
2022/04/12 03:18:56;;;;;;;;;2.00;1.33;;;;;;;;5059738;28;46314;-72
2022/04/12 03:21:21;;;;;;;;;3.00;2.00;;;;;;;;5059671;28;45316;-72
2022/04/12 03:23:46;;;;;;;;;1.33;1.33;;;;;;;;5059491;28;45461;-71
2022/04/12 03:26:12;;;;;;;;;3.00;2.00;;;;;;;;5059094;28;45401;-71
2022/04/12 03:28:37;;;;;;;;;3.00;2.00;;;;;;;;5057472;28;47692;-71
2022/04/12 03:31:03;;;;;;;;;2.67;2.00;;;;;;;;5059020;28;45336;-71
2022/04/12 03:33:28;;;;;;;;;2.00;1.67;;;;;;;;5059240;28;45305;-71
2022/04/12 03:35:53;;;;;;;;;1.00;1.00;;;;;;;;5058107;28;45478;-73
2022/04/12 03:38:19;;;;;;;;;2.00;2.00;;;;;;;;5058710;28;46081;-71
2022/04/12 03:40:46;;;;;;;;;1.67;1.67;;;;;;;;5057285;28;45442;-71
2022/04/12 03:43:12;;;;;;;;;2.67;2.67;;;;;;;;5058839;28;45429;-73
2022/04/12 03:45:37;;;;;;;;;2.67;2.00;;;;;;;;5058888;28;45195;-72
2022/04/12 03:48:03;;;;;;;;;4.00;2.33;;;;;;;;5058813;28;45399;-73
2022/04/12 03:50:28;;;;;;;;;3.33;2.33;;;;;;;;5058877;28;45186;-72
2022/04/12 03:52:54;;;;;;;;;3.33;3.33;;;;;;;;5059078;28;45437;-71
2022/04/12 03:55:30;;;;;;;;;3.00;3.00;;;;;;;;5057601;28;45659;-72
2022/04/12 03:57:56;;;;;;;;;2.00;1.67;;;;;;;;5058983;28;46387;-72
2022/04/12 04:00:22;;;;;;;;;3.75;3.25;;;;;;;;5058489;28;45372;-72
2022/04/12 04:02:47;;;;;;;;;4.00;3.00;;;;;;;;5057437;28;45297;-72
2022/04/12 04:05:12;;;;;;;;;2.33;2.00;;;;;;;;5057307;28;45364;-72
2022/04/12 04:07:38;;;;;;;;;2.67;2.67;;;;;;;;5058537;28;46379;-72
2022/04/12 04:10:04;;;;;;;;;3.00;2.00;;;;;;;;5058439;28;45445;-72
2022/04/12 04:12:29;;;;;;;;;2.00;2.00;;;;;;;;5057381;28;45300;-72
2022/04/12 04:14:55;;;;;;;;;4.00;2.33;;;;;;;;5059012;28;45198;-72
2022/04/12 04:17:21;;;;;;;;;3.50;3.00;;;;;;;;5058276;28;46517;-72
2022/04/12 04:19:47;;;;;;;;;1.00;1.00;;;;;;;;5058356;28;45316;-72
2022/04/12 04:22:12;;;;;;;;;3.33;2.00;;;;;;;;5058063;28;45523;-72
2022/04/12 04:24:37;;;;;;;;;3.00;2.00;;;;;;;;5055907;28;45419;-73
2022/04/12 04:27:05;;;;;;;;;2.00;2.00;;;;;;;;5058064;28;45421;-72
2022/04/12 04:29:33;;;;;;;;;3.00;3.00;;;;;;;;5058214;28;45378;-72
2022/04/12 04:31:58;;;;;;;;;4.00;2.00;;;;;;;;5058420;28;45489;-72
2022/04/12 04:34:23;;;;;;;;;3.33;3.00;;;;;;;;5058284;28;45362;-72
2022/04/12 04:36:49;;;;;;;;;4.50;3.75;;;;;;;;5057985;28;46102;-73
2022/04/12 04:39:14;;;;;;;;;3.00;3.00;;;;;;;;5057987;28;45461;-72
2022/04/12 04:41:40;;;;;;;;;5.00;4.00;;;;;;;;5056871;28;45476;-72
2022/04/12 04:44:05;;;;;;;;;3.00;3.00;;;;;;;;5058185;28;45463;-73
2022/04/12 04:46:30;;;;;;;;;6.67;3.00;;;;;;;;5057854;28;45843;-72
2022/04/12 04:48:56;;;;;;;;;2.00;2.00;;;;;;;;5057884;28;45545;-73
2022/04/12 04:51:21;;;;;;;;;4.00;2.50;;;;;;;;5056791;28;45408;-73
2022/04/12 04:53:55;;;;;;;;;4.25;3.25;;;;;;;;5056940;28;45381;-73
2022/04/12 04:56:21;;;;;;;;;2.00;2.00;;;;;;;;5057553;28;45417;-71
2022/04/12 04:58:46;;;;;;;;;5.00;2.00;;;;;;;;5057351;28;45388;-74
2022/04/12 05:01:12;;;;;;;;;3.33;2.33;;;;;;;;5057736;28;45358;-71
2022/04/12 05:03:37;;;;;;;;;5.33;4.00;;;;;;;;5058307;28;45292;-71
2022/04/12 05:06:02;;;;;;;;;4.00;4.00;;;;;;;;5057539;28;46473;-71
2022/04/12 05:08:28;;;;;;;;;4.00;2.33;;;;;;;;5057767;28;45453;-72
2022/04/12 05:10:53;;;;;;;;;5.00;3.00;;;;;;;;5056383;28;45536;-72
2022/04/12 05:13:18;;;;;;;;;4.33;3.00;;;;;;;;5057779;28;45502;-71
2022/04/12 05:15:44;;;;;;;;;4.25;3.00;;;;;;;;5057304;28;46426;-72
2022/04/12 05:18:09;;;;;;;;;3.75;3.00;;;;;;;;5056742;28;45484;-71
2022/04/12 05:20:35;;;;;;;;;3.00;3.00;;;;;;;;5054317;28;45424;-72
2022/04/12 05:23:00;;;;;;;;;2.00;2.00;;;;;;;;5054769;28;45637;-72
2022/04/12 05:25:25;;;;;;;;;3.00;3.00;;;;;;;;5055244;28;45449;-71
2022/04/12 05:27:51;;;;;;;;;3.00;2.00;;;;;;;;5055453;28;45337;-72
2022/04/12 05:30:17;;;;;;;;;4.00;3.00;;;;;;;;5055389;28;45490;-70
2022/04/12 05:32:42;;;;;;;;;3.00;3.00;;;;;;;;5055987;28;45419;-71
2022/04/12 05:35:08;;;;;;;;;4.00;3.00;;;;;;;;5055342;28;45914;-71
2022/04/12 05:37:40;;;;;;;;;2.33;2.33;;;;;;;;5054835;28;45972;-70
2022/04/12 05:40:06;;;;;;;;;3.00;2.33;;;;;;;;5055550;28;45763;-71
2022/04/12 05:42:31;;;;;;;;;3.00;2.00;;;;;;;;5053331;28;45325;-72
2022/04/12 05:44:56;;;;;;;;;1.67;1.67;;;;;;;;5055026;28;46176;-72
2022/04/12 05:47:22;;;;;;;;;3.75;3.00;;;;;;;;5055202;28;45503;-72
2022/04/12 05:49:47;;;;;;;;;3.67;3.00;;;;;;;;5053751;28;45865;-70
2022/04/12 05:52:12;;;;;;;;;4.00;3.00;;;;;;;;5055510;28;45575;-72
2022/04/12 05:54:38;;;;;;;;;3.67;3.00;;;;;;;;5055234;28;46263;-71
2022/04/12 05:57:03;;;;;;;;;4.75;3.00;;;;;;;;5053926;28;45642;-72
2022/04/12 05:59:29;;;;;;;;;5.00;2.67;;;;;;;;5055601;28;45500;-71
2022/04/12 06:01:54;;;;;;;;;3.00;3.00;;;;;;;;5055280;28;45489;-70
2022/04/12 06:04:19;;;;;;;;;2.33;2.00;;;;;;;;5054999;28;46403;-71
2022/04/12 06:06:45;;;;;;;;;2.67;2.00;;;;;;;;5054922;28;45524;-70
2022/04/12 06:09:10;;;;;;;;;3.67;3.00;;;;;;;;5053644;28;45581;-71
2022/04/12 06:11:36;;;;;;;;;3.33;2.67;;;;;;;;5055324;28;45302;-71
2022/04/12 06:14:01;;;;;;;;;3.00;2.33;;;;;;;;5053681;28;46598;-72
2022/04/12 06:16:26;;;;;;;;;4.67;3.33;;;;;;;;5054813;28;45214;-71
2022/04/12 06:18:52;;;;;;;;;4.00;3.33;;;;;;;;5053655;28;45356;-71
2022/04/12 06:21:18;;;;;;;;;4.00;3.00;;;;;;;;5055168;28;45856;-72
2022/04/12 06:23:44;;;;;;;;;10.50;8.00;;;;;;;;5054687;28;46021;-72
2022/04/12 06:26:09;;;;;;;;;12.75;9.00;;;;;;;;5054483;28;45560;-71
2022/04/12 06:28:34;;;;;;;;;12.00;10.50;;;;;;;;5055827;28;45239;-72
2022/04/12 06:31:00;;;;;;;;;7.75;6.50;;;;;;;;5055533;28;45596;-72
2022/04/12 06:33:28;;;;;;;;;6.50;5.50;;;;;;;;5056343;28;46454;-72
2022/04/12 06:35:54;;;;;;;;;7.33;5.67;;;;;;;;5056305;28;45331;-72
2022/04/12 06:38:19;;;;;;;;;5.00;3.00;;;;;;;;5056403;28;45880;-71
2022/04/12 06:40:45;;;;;;;;;11.50;9.25;;;;;;;;5056465;28;45248;-71
2022/04/12 06:43:11;;;;;;;;;4.00;4.00;;;;;;;;5054886;28;45385;-73
2022/04/12 06:45:37;;;;;;;;;7.75;5.75;;;;;;;;5051024;28;46464;-70
2022/04/12 06:48:02;;;;;;;;;3.00;2.00;;;;;;;;5054669;28;45453;-71
2022/04/12 06:50:28;;;;;;;;;9.00;8.50;;;;;;;;5057449;28;45223;-70
2022/04/12 06:52:54;;;;;;;;;8.25;7.00;;;;;;;;5057709;28;46904;-71
2022/04/12 06:55:19;;;;;;;;;2.00;2.00;;;;;;;;5037620;28;45337;-71
2022/04/12 06:57:45;;;;;;;;;5.00;4.00;;;;;;;;5038894;28;45229;-73
2022/04/12 07:00:10;;;;;;;;;4.00;3.00;;;;;;;;5037947;28;46078;-71
2022/04/12 07:02:36;;;;;;;;;4.00;3.33;;;;;;;;5037306;28;46841;-70
2022/04/12 07:05:02;;;;;;;;;1.00;1.00;;;;;;;;5038835;28;45470;-69
2022/04/12 07:07:28;;;;;;;;;3.00;3.00;;;;;;;;5038920;28;45461;-72
2022/04/12 07:09:54;;;;;;;;;1.00;1.00;;;;;;;;5038825;28;45506;-71
2022/04/12 07:12:20;;;;;;;;;4.33;3.67;;;;;;;;5038668;28;45629;-71
2022/04/12 07:14:45;;;;;;;;;2.33;2.00;;;;;;;;5038652;28;45366;-72
2022/04/12 07:17:11;;;;;;;;;3.00;2.33;;;;;;;;5037302;28;45547;-71
2022/04/12 07:19:36;;;;;;;;;1.67;1.33;;;;;;;;5038674;28;45457;-73
2022/04/12 07:22:01;;;;;;;;;3.00;3.00;;;;;;;;5038590;28;45436;-72
2022/04/12 07:24:27;;;;;;;;;1.67;1.00;;;;;;;;5037485;28;45468;-72
2022/04/12 07:26:52;;;;;;;;;6.67;6.67;;;;;;;;5037520;28;45374;-72
2022/04/12 07:29:17;;;;;;;;;1.67;1.67;;;;;;;;5039098;28;45591;-72
2022/04/12 07:31:43;;;;;;;;;2.33;2.33;;;;;;;;5038966;28;46439;-72
2022/04/12 07:34:09;;;;;;;;;1.00;0.67;;;;;;;;5038854;28;45488;-72
2022/04/12 07:36:39;;;;;;;;;1.67;1.00;;;;;;;;5038128;28;45485;-73
2022/04/12 07:39:05;;;;;;;;;2.00;1.00;;;;;;;;5037594;28;45469;-73
2022/04/12 07:41:31;;;;;;;;;1.67;1.67;;;;;;;;5057465;28;45575;-72
2022/04/12 07:43:56;;;;;;;;;0.67;0.67;;;;;;;;5058730;28;45469;-71
2022/04/12 07:46:21;;;;;;;;;2.33;1.67;;;;;;;;5058707;28;45775;-71
2022/04/12 07:48:47;;;;;;;;;3.00;2.00;;;;;;;;5058842;28;45365;-71
2022/04/12 07:51:12;;;;;;;;;7.00;2.67;;;;;;;;5058718;28;45793;-71
2022/04/12 07:53:38;;;;;;;;;1.67;1.67;;;;;;;;5058730;28;45410;-70
2022/04/12 07:56:04;;;;;;;;;6.67;5.00;;;;;;;;5059079;28;45292;-70
2022/04/12 07:58:29;;;;;;;;;5.00;4.33;;;;;;;;5058441;28;45353;-72
2022/04/12 08:00:55;;;;;;;;;1.00;1.00;;;;;;;;5058037;28;45532;-69
2022/04/12 08:03:21;;;;;;;;;2.00;1.67;;;;;;;;5058249;28;45301;-71
2022/04/12 08:05:50;;;;;;;;;1.00;1.00;;;;;;;;5058574;28;45337;-71
2022/04/12 08:08:16;;;;;;;;;0.00;0.00;;;;;;;;5058686;28;45337;-71
2022/04/12 08:10:41;;;;;;;;;1.00;0.00;;;;;;;;5056564;28;46727;-69
2022/04/12 08:13:07;;;;;;;;;0.33;0.33;;;;;;;;5056440;28;45280;-69
2022/04/12 08:15:32;;;;;;;;;3.00;2.67;;;;;;;;5057446;28;45352;-71
2022/04/12 08:17:57;;;;;;;;;1.00;1.00;;;;;;;;5057691;28;45323;-72
2022/04/12 08:20:23;;;;;;;;;3.67;3.00;;;;;;;;5057695;28;46491;-72
2022/04/12 08:22:49;;;;;;;;;2.00;2.00;;;;;;;;5057763;28;45463;-71
2022/04/12 08:25:14;;;;;;;;;2.00;2.00;;;;;;;;5057963;28;45386;-71
2022/04/12 08:27:40;;;;;;;;;1.00;1.00;;;;;;;;5058073;28;45341;-71
2022/04/12 08:30:07;;;;;;;;;0.33;0.33;;;;;;;;5057973;28;46117;-71
2022/04/12 08:32:35;;;;;;;;;1.00;1.00;;;;;;;;5057232;28;45396;-71
2022/04/12 08:35:01;;;;;;;;;11.00;10.00;;;;;;;;5057484;28;45483;-71
2022/04/12 08:37:26;;;;;;;;;4.00;4.00;;;;;;;;5058049;28;45422;-69
2022/04/12 08:39:52;;;;;;;;;3.00;1.00;;;;;;;;5055973;28;45978;-71
2022/04/12 08:42:17;;;;;;;;;2.00;2.00;;;;;;;;5057658;28;45250;-71
2022/04/12 08:44:44;;;;;;;;;10.00;8.67;;;;;;;;5057777;28;45474;-71
2022/04/12 08:47:09;;;;;;;;;2.00;1.67;;;;;;;;5057963;28;45658;-71
2022/04/12 08:49:35;;;;;;;;;34.25;31.00;;;;;;;;5057108;28;45444;-70
2022/04/12 08:52:02;;;;;;;;;1.67;1.33;;;;;;;;5057639;28;45874;-71
2022/04/12 08:54:28;;;;;;;;;2.67;2.00;;;;;;;;5057763;28;45305;-71
2022/04/12 08:56:54;;;;;;;;;3.00;3.00;;;;;;;;5057900;28;45418;-71
2022/04/12 08:59:19;;;;;;;;;5.00;5.00;;;;;;;;5055978;28;45597;-71
2022/04/12 09:01:46;;;;;;;;;2.00;2.00;;;;;;;;5056093;28;45405;-71
2022/04/12 09:04:12;;;;;;;;;2.00;2.00;;;;;;;;5057649;28;45251;-69
2022/04/12 09:06:50;;;;;;;;;4.00;3.00;;;;;;;;5057931;28;45266;-71
2022/04/12 09:09:16;;;;;;;;;5.00;5.00;;;;;;;;5055647;28;46974;-71
2022/04/12 09:11:42;;;;;;;;;5.33;5.00;;;;;;;;5056575;28;45557;-71
2022/04/12 09:14:11;;;;;;;;;5.00;4.67;;;;;;;;5057300;28;45481;-71
2022/04/12 09:16:41;;;;;;;;;2.00;2.00;;;;;;;;5057488;28;45206;-70
2022/04/12 09:19:07;;;;;;;;;8.00;6.33;;;;;;;;5057066;28;46469;-69
2022/04/12 09:21:32;;;;;;;;;7.00;6.00;;;;;;;;5057049;28;45246;-70
2022/04/12 09:24:01;;;;;;;;;5.67;4.67;;;;;;;;5056755;28;45582;-71
2022/04/12 09:26:30;;;;;;;;;5.00;4.33;;;;;;;;5055352;28;45600;-71
2022/04/12 09:28:57;;;;;;;;;3.67;3.00;;;;;;;;5056277;28;46206;-70
2022/04/12 09:31:22;;;;;;;;;3.33;3.00;;;;;;;;5056441;28;45274;-71
2022/04/12 09:33:49;;;;;;;;;2.00;2.00;;;;;;;;5056523;28;45431;-70
2022/04/12 09:36:14;;;;;;;;;0.33;0.33;;;;;;;;5057081;28;45458;-71
2022/04/12 09:38:43;;;;;;;;;1.67;1.33;;;;;;;;5057497;28;45516;-70
2022/04/12 09:41:25;;;;;;;;;1.00;1.00;;;;;;;;5076497;28;45432;-69
2022/04/12 09:43:51;;;;;;;;;1.00;1.00;;;;;;;;5076180;27;45464;-71
2022/04/12 09:46:16;;;;;;;;;1.00;1.00;;;;;;;;5076560;27;45491;-72
2022/04/12 09:48:45;;;;;;;;;1.67;1.00;;;;;;;;5076090;28;46043;-72
2022/04/12 09:51:11;;;;;;;;;1.00;0.00;;;;;;;;5075024;28;45586;-69
2022/04/12 09:53:38;;;;;;;;;2.00;1.00;;;;;;;;5075112;27;45447;-70
2022/04/12 09:56:13;;;;;;;;;0.33;0.00;;;;;;;;5076208;27;45531;-70
2022/04/12 09:58:40;;;;;;;;;0.00;0.00;;;;;;;;5075033;27;46725;-71
2022/04/12 10:01:06;;;;;;;;;1.67;1.33;;;;;;;;5076087;27;45443;-73
2022/04/12 10:03:32;;;;;;;;;1.00;1.00;;;;;;;;5076108;27;45629;-74
2022/04/12 10:05:57;;;;;;;;;1.00;1.00;;;;;;;;5076047;27;45511;-70
2022/04/12 10:08:24;;;;;;;;;2.33;2.00;;;;;;;;5075681;27;46281;-67
2022/04/12 10:10:51;;;;;;;;;1.00;0.33;;;;;;;;5067246;27;45450;-69
2022/04/12 10:13:16;;;;;;;;;1.00;1.00;;;;;;;;5066252;28;45429;-71
2022/04/12 10:15:41;;;;;;;;;1.00;0.00;;;;;;;;5065295;28;45207;-72
2022/04/12 10:18:07;;;;;;;;;1.33;0.67;;;;;;;;5063035;28;47162;-71
2022/04/12 10:20:32;;;;;;;;;3.00;1.00;;;;;;;;5070852;28;46245;-71
2022/04/12 10:22:59;;;;;;;;;0.00;0.00;;;;;;;;5066605;27;45418;-72
2022/04/12 10:25:25;;;;;;;;;1.00;1.00;;;;;;;;5069885;28;45382;-71
2022/04/12 10:27:53;;;;;;;;;1.00;1.00;;;;;;;;5064900;28;45456;-70
2022/04/12 10:30:18;;;;;;;;;1.33;1.00;;;;;;;;5066732;27;45515;-71
2022/04/12 10:33:13;;;;;;;;;1.00;1.00;;;;;;;;5069431;28;45620;-70
2022/04/12 10:35:44;;;;;;;;;1.00;1.00;;;;;;;;5054275;28;45463;-70
2022/04/12 10:38:10;;;;;;;;;2.00;1.67;;;;;;;;5068788;28;46202;-71
2022/04/12 10:40:36;;;;;;;;;4.00;4.00;;;;;;;;5067809;28;45480;-70
2022/04/12 10:43:04;;;;;;;;;6.67;5.67;;;;;;;;5067620;27;45843;-70
2022/04/12 10:45:31;;;;;;;;;4.00;3.00;;;;;;;;5069120;27;45595;-71
2022/04/12 10:47:57;;;;;;;;;2.00;2.00;;;;;;;;5068037;28;46607;-69
2022/04/12 10:50:22;;;;;;;;;2.00;2.00;;;;;;;;5065010;27;45404;-71
2022/04/12 10:52:51;;;;;;;;;2.00;2.00;;;;;;;;5063046;28;45588;-70
2022/04/12 10:55:27;;;;;;;;;0.67;0.00;;;;;;;;5067476;27;45865;-70
2022/04/12 10:57:53;;;;;;;;;1.00;1.00;;;;;;;;5065976;28;45546;-72
2022/04/12 11:00:20;;;;;;;;;0.33;0.33;;;;;;;;5067076;28;45323;-71
2022/04/12 11:02:56;;;;;;;;;1.00;1.00;;;;;;;;5062388;27;45570;-70
2022/04/12 11:05:30;;;;;;;;;2.00;2.00;;;;;;;;5058974;28;45516;-71
2022/04/12 11:07:56;;;;;;;;;1.00;1.00;;;;;;;;5058619;28;45390;-71
2022/04/12 11:10:21;;;;;;;;;1.00;1.00;;;;;;;;5058739;28;45428;-71
2022/04/12 11:12:48;;;;;;;;;1.00;0.00;;;;;;;;5059417;28;45434;-71
2022/04/12 11:15:27;;;;;;;;;1.00;1.00;;;;;;;;5059877;28;45467;-73
2022/04/12 11:18:05;;;;;;;;;1.33;1.00;;;;;;;;5059080;28;46302;-71
2022/04/12 11:20:31;;;;;;;;;1.00;1.00;;;;;;;;5057787;28;45321;-71
2022/04/12 11:22:57;;;;;;;;;0.67;0.67;;;;;;;;5059248;28;45262;-72
2022/04/12 11:25:23;;;;;;;;;1.00;1.00;;;;;;;;5058932;28;45540;-71
2022/04/12 11:27:57;;;;;;;;;0.00;0.00;;;;;;;;5057958;28;46417;-72
2022/04/12 11:30:23;;;;;;;;;0.00;0.00;;;;;;;;5058798;28;45495;-71
2022/04/12 11:32:49;;;;;;;;;1.00;1.00;;;;;;;;5059383;28;45469;-73
2022/04/12 11:35:15;;;;;;;;;1.00;1.00;;;;;;;;5058707;28;45413;-73
2022/04/12 11:37:40;;;;;;;;;2.00;2.00;;;;;;;;5058591;28;46340;-72
2022/04/12 11:40:06;;;;;;;;;1.00;1.00;;;;;;;;5058688;28;45246;-72
2022/04/12 11:42:31;;;;;;;;;1.00;1.00;;;;;;;;5059034;28;45326;-72
2022/04/12 11:44:57;;;;;;;;;1.00;1.00;;;;;;;;5058982;28;45294;-73
2022/04/12 11:47:33;;;;;;;;;2.67;2.67;;;;;;;;5058493;28;46243;-73
2022/04/12 11:49:59;;;;;;;;;1.00;1.00;;;;;;;;5058575;28;45204;-72
2022/04/12 11:52:25;;;;;;;;;1.00;1.00;;;;;;;;5056964;28;45360;-72
2022/04/12 11:54:51;;;;;;;;;1.33;1.00;;;;;;;;5057430;28;45499;-71
2022/04/12 11:57:20;;;;;;;;;1.00;1.00;;;;;;;;5058352;28;45422;-72
2022/04/12 11:59:47;;;;;;;;;2.00;1.67;;;;;;;;5057380;28;45553;-72
2022/04/12 12:02:13;;;;;;;;;2.00;2.00;;;;;;;;5058013;28;45330;-72
2022/04/12 12:04:54;;;;;;;;;2.00;2.00;;;;;;;;5056533;28;45438;-72
2022/04/12 12:07:19;;;;;;;;;2.00;2.00;;;;;;;;5057854;28;45336;-72
2022/04/12 12:09:53;;;;;;;;;1.67;1.67;;;;;;;;5058064;28;45419;-71
2022/04/12 12:12:18;;;;;;;;;1.67;1.67;;;;;;;;5058535;28;45487;-73
2022/04/12 12:14:44;;;;;;;;;2.00;2.00;;;;;;;;5058417;28;45306;-72
2022/04/12 12:17:12;;;;;;;;;1.00;1.00;;;;;;;;5058127;28;45298;-72
2022/04/12 12:19:38;;;;;;;;;2.00;2.00;;;;;;;;5058102;28;45408;-72
2022/04/12 12:22:08;;;;;;;;;1.00;1.00;;;;;;;;5056854;28;45223;-72
2022/04/12 12:24:37;;;;;;;;;0.00;0.00;;;;;;;;5058345;28;45492;-71
2022/04/12 12:27:03;;;;;;;;;1.00;0.00;;;;;;;;5056120;28;45871;-72
2022/04/12 12:29:29;;;;;;;;;0.00;0.00;;;;;;;;5056183;28;45393;-72
2022/04/12 12:31:57;;;;;;;;;0.00;0.00;;;;;;;;5057889;28;45484;-72
2022/04/12 12:34:26;;;;;;;;;2.00;1.00;;;;;;;;5058357;28;45702;-70
2022/04/12 12:36:52;;;;;;;;;8.00;8.00;;;;;;;;5057976;28;45315;-72
2022/04/12 12:39:18;;;;;;;;;1.00;1.00;;;;;;;;5056272;28;45324;-72
2022/04/12 12:41:43;;;;;;;;;1.00;1.00;;;;;;;;5058282;28;45405;-72
2022/04/12 12:44:09;;;;;;;;;1.00;1.00;;;;;;;;5056429;28;45404;-73
2022/04/12 12:46:34;;;;;;;;;2.00;1.00;;;;;;;;5056253;28;46396;-71
2022/04/12 12:49:10;;;;;;;;;2.00;1.00;;;;;;;;5057679;28;45523;-73
2022/04/12 12:51:37;;;;;;;;;1.00;1.00;;;;;;;;5057843;28;45210;-72
2022/04/12 12:54:04;;;;;;;;;1.00;0.00;;;;;;;;5057579;28;45589;-72
2022/04/12 12:56:36;;;;;;;;;1.67;1.67;;;;;;;;5056618;28;46215;-72
2022/04/12 12:59:18;;;;;;;;;2.00;2.00;;;;;;;;5057253;28;45391;-72
2022/04/12 13:01:44;;;;;;;;;2.00;2.00;;;;;;;;5057596;28;45463;-73
2022/04/12 13:04:20;;;;;;;;;2.00;2.00;;;;;;;;5057541;28;45281;-72
2022/04/12 13:06:45;;;;;;;;;1.00;1.00;;;;;;;;5057299;28;46095;-71
2022/04/12 13:09:10;;;;;;;;;3.67;3.00;;;;;;;;5055810;28;45531;-73
2022/04/12 13:11:36;;;;;;;;;2.33;2.00;;;;;;;;5057244;28;45500;-72
2022/04/12 13:14:02;;;;;;;;;1.00;1.00;;;;;;;;5057809;28;45579;-72
2022/04/12 13:16:27;;;;;;;;;2.33;2.33;;;;;;;;5055611;28;46558;-72
2022/04/12 13:19:01;;;;;;;;;1.00;1.00;;;;;;;;5057422;28;45314;-73
2022/04/12 13:21:26;;;;;;;;;2.00;2.00;;;;;;;;5057301;28;45183;-72
2022/04/12 13:23:52;;;;;;;;;3.00;3.00;;;;;;;;5057101;28;45410;-72
2022/04/12 13:26:17;;;;;;;;;1.33;1.00;;;;;;;;5056491;28;46413;-72
2022/04/12 13:28:43;;;;;;;;;5.00;5.00;;;;;;;;5056431;28;45317;-73
2022/04/12 13:31:08;;;;;;;;;4.00;3.00;;;;;;;;5056450;28;45671;-72
2022/04/12 13:33:36;;;;;;;;;3.00;3.00;;;;;;;;5057172;28;45480;-71
2022/04/12 13:36:01;;;;;;;;;2.67;2.67;;;;;;;;5065233;28;45516;-71
2022/04/12 13:38:27;;;;;;;;;3.00;2.00;;;;;;;;5066417;27;46118;-71
2022/04/12 13:40:53;;;;;;;;;2.33;2.00;;;;;;;;5056885;28;45503;-72
2022/04/12 13:43:18;;;;;;;;;2.00;2.00;;;;;;;;5056917;28;45449;-72
2022/04/12 13:45:44;;;;;;;;;4.00;4.00;;;;;;;;5056244;28;45472;-71
2022/04/12 13:48:09;;;;;;;;;2.00;2.00;;;;;;;;5054942;28;45420;-74
2022/04/12 13:50:35;;;;;;;;;2.00;2.00;;;;;;;;5056539;28;45377;-71
2022/04/12 13:53:00;;;;;;;;;9.00;8.00;;;;;;;;5055370;28;45289;-70
2022/04/12 13:55:25;;;;;;;;;1.33;1.00;;;;;;;;5056307;28;45449;-72
2022/04/12 13:57:51;;;;;;;;;1.00;1.00;;;;;;;;5071788;27;45566;-70
2022/04/12 14:00:19;;;;;;;;;1.00;1.00;;;;;;;;5075456;27;45736;-70
2022/04/12 14:02:44;;;;;;;;;2.00;2.00;;;;;;;;5080632;27;45429;-72
2022/04/12 14:05:10;;;;;;;;;1.00;1.00;;;;;;;;5066256;27;47511;-76
2022/04/12 14:07:35;;;;;;;;;1.00;1.00;;;;;;;;5058185;28;45574;-77
2022/04/12 14:10:00;;;;;;;;;2.00;1.00;;;;;;;;5059656;28;45996;-71
2022/04/12 14:12:26;;;;;;;;;3.33;3.33;;;;;;;;5060085;28;45514;-72
2022/04/12 14:14:51;;;;;;;;;1.33;0.67;;;;;;;;5059592;28;45450;-73
2022/04/12 14:17:16;;;;;;;;;0.67;0.33;;;;;;;;5059562;28;45674;-71
2022/04/12 14:19:42;;;;;;;;;1.00;1.00;;;;;;;;5057990;28;45406;-74
2022/04/12 14:22:07;;;;;;;;;2.00;2.00;;;;;;;;5058403;28;45426;-74
2022/04/12 14:24:34;;;;;;;;;1.00;1.00;;;;;;;;5059008;28;45492;-69
2022/04/12 14:27:00;;;;;;;;;1.00;1.00;;;;;;;;5059549;28;45378;-69
2022/04/12 14:29:25;;;;;;;;;1.00;1.00;;;;;;;;5059515;28;45483;-71
2022/04/12 14:31:50;;;;;;;;;2.00;1.00;;;;;;;;5057861;28;45472;-71
2022/04/12 14:34:16;;;;;;;;;2.33;2.00;;;;;;;;5059038;28;45325;-71
2022/04/12 14:36:41;;;;;;;;;3.33;3.00;;;;;;;;5066418;28;45290;-70
2022/04/12 14:39:06;;;;;;;;;4.00;4.00;;;;;;;;5068474;28;45377;-72
2022/04/12 14:41:32;;;;;;;;;2.67;2.67;;;;;;;;5060745;28;45417;-73